Aviation Digital Data Service (ADDS)

Output produced by METARs form (0123 UTC 18 December 2017)
found at http://aviationweather.gov/adds/metars/
 
KIAG 172338Z 1800/1824 08009KT P6SM OVC050 
     FM180600 VRB03KT P6SM OVC012 
     FM181500 23011G20KT 6SM -RA OVC007 
     FM181700 23011G20KT P6SM OVC007